UNTT 160800Z 26005MPS 9999 SCT043 25/02 Q1010 WS R21 R21/090060 NOSIG RMK QFE743
QNH:(hPa/inHg/mmHg)1010 / 29.83 / 758
QFE:(hPa/inHg/mmHg)988 / 29.17 / 741
Temperature25
Dew Point2
Visibility> 10000
Weather
Cloud CoverSCT (4300);
Transition Height700 m./2900 ft.
Transition LevelFL50
SQUAWK